deformed-offering
Saratoga-Weather Station Historical Data
 
Daily Summary for September 21, 2019 Units:  English    Metric   Both
Daily Weekly Monthly Yearly Custom
  Current: High: Low: Average:
Temperature: 81.3 °F 81.3 °F 55.3 °F 62.8 °F
Dew Point: 46 °F 52.4 °F 46 °F 49 °F
Humidity: 29% 84% 29% 64%
Wind Speed: 2.5mph 4.1mph 0mph 0.7mph
Wind Gust: 7mph 12mph - -
WindNNW - - WNW
Pressure: 29.91 in 29.97 in 29.91 in -
Precipitation: 0.00 in      
Historical Graphs
 
 
Tabular Data for September 21, 2019
Time Temperature Dew Point Pressure Wind Wind Speed Wind Gust Humidity Rainfall Rate (Hourly) solar
00:04 60.9 °F 49.6 °F 29.92 in Calm     66.2% 0.00 in 0 W/m2
00:09 60.7 °F 49.7 °F 29.92 in Calm     66.8% 0.00 in 0 W/m2
00:14 60.6 °F 49.6 °F 29.92 in Calm     67% 0.00 in 0 W/m2
00:19 60.5 °F 49.5 °F 29.92 in Calm     67% 0.00 in 0 W/m2
00:24 60.4 °F 49.4 °F 29.92 in Calm     67% 0.00 in 0 W/m2
00:29 60.4 °F 49.4 °F 29.92 in Calm     67% 0.00 in 0 W/m2
00:34 60.2 °F 49.2 °F 29.92 in Calm     67% 0.00 in 0 W/m2
00:39 60.2 °F 49.2 °F 29.92 in Calm     67% 0.00 in 0 W/m2
00:44 60.1 °F 49.6 °F 29.92 in Calm     68.2% 0.00 in 0 W/m2
00:49 60.1 °F 49.9 °F 29.92 in Calm     69% 0.00 in 0 W/m2
00:54 60 °F 49.4 °F 29.92 in Calm     68.1% 0.00 in 0 W/m2
00:59 59.9 °F 49.7 °F 29.92 in NW 0.4 mph 2.3 mph 68.9% 0.00 in 0 W/m2
01:04 59.8 °F 49.6 °F 29.92 in Calm   2 mph 69% 0.00 in 0 W/m2
01:09 59.7 °F 49.5 °F 29.92 in Calm     68.8% 0.00 in 0 W/m2
01:14 59.6 °F 49.4 °F 29.92 in Calm     69% 0.00 in 0 W/m2
01:19 59.6 °F 49.8 °F 29.92 in Calm     69.9% 0.00 in 0 W/m2
01:24 59.6 °F 50 °F 29.92 in Calm     70.7% 0.00 in 0 W/m2
01:29 59.5 °F 50.1 °F 29.92 in Calm     70.9% 0.00 in 0 W/m2
01:34 59.5 °F 50.1 °F 29.92 in Calm     71% 0.00 in 0 W/m2
01:39 59.3 °F 50.2 °F 29.92 in Calm     71.7% 0.00 in 0 W/m2
01:44 59.3 °F 50.2 °F 29.92 in Calm     71.8% 0.00 in 0 W/m2
01:49 59.3 °F 50.3 °F 29.92 in Calm     72% 0.00 in 0 W/m2
01:54 59.2 °F 50.2 °F 29.92 in Calm     72% 0.00 in 0 W/m2
01:59 59.1 °F 50.1 °F 29.92 in Calm     71.9% 0.00 in 0 W/m2
02:04 59 °F 49.6 °F 29.92 in Calm     71% 0.00 in 0 W/m2
02:09 59 °F 49.6 °F 29.92 in Calm     71% 0.00 in 0 W/m2
02:14 58.9 °F 49.5 °F 29.92 in Calm     71% 0.00 in 0 W/m2
02:19 58.9 °F 49.3 °F 29.92 in Calm     70.5% 0.00 in 0 W/m2
02:24 58.8 °F 49 °F 29.92 in Calm     70% 0.00 in 0 W/m2
02:29 58.7 °F 48.6 °F 29.93 in Calm     69.1% 0.00 in 0 W/m2
02:34 58.7 °F 48.6 °F 29.93 in Calm     69% 0.00 in 0 W/m2
02:39 58.7 °F 48.6 °F 29.93 in Calm     69% 0.00 in 0 W/m2
02:44 58.6 °F 48.5 °F 29.93 in Calm     69% 0.00 in 0 W/m2
02:49 58.6 °F 48.5 °F 29.93 in Calm     69% 0.00 in 0 W/m2
02:54 58.6 °F 48.5 °F 29.93 in Calm     69% 0.00 in 0 W/m2
02:59 58.5 °F 48.4 °F 29.93 in Calm     69% 0.00 in 0 W/m2
03:04 58.4 °F 48.3 °F 29.92 in Calm     69% 0.00 in 0 W/m2
03:09 58.3 °F 48.2 °F 29.92 in Calm     69% 0.00 in 0 W/m2
03:14 58.3 °F 48.2 °F 29.92 in Calm     69% 0.00 in 0 W/m2
03:19 58.2 °F 48.1 °F 29.92 in Calm     69% 0.00 in 0 W/m2
03:24 58.1 °F 48.3 °F 29.92 in Calm     69.8% 0.00 in 0 W/m2
03:29 58.1 °F 48.4 °F 29.92 in Calm     70% 0.00 in 0 W/m2
03:34 58 °F 48.3 °F 29.92 in Calm     70% 0.00 in 0 W/m2
03:39 58 °F 48.6 °F 29.92 in Calm     70.9% 0.00 in 0 W/m2
03:44 58 °F 48.6 °F 29.92 in Calm     71% 0.00 in 0 W/m2
03:49 57.9 °F 48.7 °F 29.92 in Calm     71.6% 0.00 in 0 W/m2
03:54 57.8 °F 48.5 °F 29.92 in Calm     71.1% 0.00 in 0 W/m2
03:59 57.7 °F 48.4 °F 29.92 in Calm     71% 0.00 in 0 W/m2
04:04 57.6 °F 48.3 °F 29.92 in Calm     71% 0.00 in 0 W/m2
04:09 57.6 °F 48.5 °F 29.92 in Calm     72% 0.00 in 0 W/m2
04:14 57.5 °F 48.2 °F 29.92 in Calm     71% 0.00 in 0 W/m2
04:19 57.4 °F 48.1 °F 29.92 in Calm     71% 0.00 in 0 W/m2
04:24 57.3 °F 48.2 °F 29.92 in Calm     71.6% 0.00 in 0 W/m2
04:29 57.2 °F 48.4 °F 29.92 in Calm     72.4% 0.00 in 0 W/m2
04:34 57.2 °F 48.6 °F 29.92 in Calm     73% 0.00 in 0 W/m2
04:39 57.2 °F 48.9 °F 29.92 in Calm     73.9% 0.00 in 0 W/m2
04:44 57 °F 48.6 °F 29.92 in Calm     73.4% 0.00 in 0 W/m2
04:49 57 °F 48.4 °F 29.92 in Calm     73% 0.00 in 0 W/m2
04:54 57 °F 48.4 °F 29.92 in Calm     73% 0.00 in 0 W/m2
04:59 56.9 °F 48.3 °F 29.92 in Calm     73% 0.00 in 0 W/m2
05:04 56.9 °F 48.3 °F 29.92 in Calm     73% 0.00 in 0 W/m2
05:09 56.8 °F 48.5 °F 29.92 in Calm     73.6% 0.00 in 0 W/m2
05:14 56.8 °F 48.6 °F 29.93 in Calm     74% 0.00 in 0 W/m2
05:19 56.8 °F 48.9 °F 29.93 in Calm     74.8% 0.00 in 0 W/m2
05:24 56.7 °F 48.9 °F 29.93 in Calm     75% 0.00 in 0 W/m2
05:29 56.7 °F 48.9 °F 29.93 in Calm     75% 0.00 in 0 W/m2
05:34 56.6 °F 48.8 °F 29.93 in Calm     75% 0.00 in 0 W/m2
05:39 56.6 °F 48.8 °F 29.93 in Calm     75% 0.00 in 0 W/m2
05:44 56.5 °F 48.7 °F 29.93 in Calm     75% 0.00 in 0 W/m2
05:49 56.4 °F 48.6 °F 29.93 in Calm     75.1% 0.00 in 0 W/m2
05:54 56.3 °F 48.8 °F 29.93 in Calm     76% 0.00 in 0 W/m2
05:59 56.2 °F 48.8 °F 29.93 in Calm     76.1% 0.00 in 0 W/m2
06:04 56.1 °F 49 °F 29.93 in Calm     77% 0.00 in 0 W/m2
06:09 56 °F 49 °F 29.94 in Calm     77.4% 0.00 in 0 W/m2
06:14 56 °F 49.1 °F 29.94 in Calm     77.6% 0.00 in 0 W/m2
06:19 55.9 °F 48.8 °F 29.94 in Calm     77% 0.00 in 0 W/m2
06:24 55.8 °F 48.7 °F 29.94 in Calm     77.1% 0.00 in 0 W/m2
06:29 55.7 °F 48.9 °F 29.94 in Calm     78% 0.00 in 0 W/m2
06:34 55.6 °F 48.8 °F 29.94 in Calm     78% 0.00 in 0 W/m2
06:39 55.6 °F 48.8 °F 29.94 in Calm     78% 0.00 in 0 W/m2
06:44 55.5 °F 49 °F 29.94 in Calm     78.8% 0.00 in 0 W/m2
06:49 55.4 °F 49 °F 29.94 in Calm     79% 0.00 in 0 W/m2
06:54 55.4 °F 49 °F 29.94 in Calm     79% 0.00 in 0 W/m2
06:59 55.3 °F 48.9 °F 29.94 in Calm     79% 0.00 in 5 W/m2
07:04 55.3 °F 48.9 °F 29.94 in Calm     79% 0.00 in 7 W/m2
07:09 55.3 °F 48.9 °F 29.94 in Calm     79% 0.00 in 18 W/m2
07:14 55.3 °F 49.1 °F 29.94 in Calm     79.6% 0.00 in 33 W/m2
07:19 55.3 °F 49.2 °F 29.95 in Calm     80% 0.00 in 42 W/m2
07:24 55.3 °F 49.2 °F 29.95 in Calm     80% 0.00 in 53 W/m2
07:29 55.3 °F 49.2 °F 29.95 in Calm     80% 0.00 in 77 W/m2
07:34 55.3 °F 49.2 °F 29.95 in Calm     80% 0.00 in 97 W/m2
07:39 55.3 °F 49.2 °F 29.95 in Calm     80% 0.00 in 114 W/m2
07:44 55.3 °F 49.3 °F 29.95 in Calm     80.1% 0.00 in 130 W/m2
07:49 55.4 °F 49.3 °F 29.95 in Calm     80.1% 0.00 in 143 W/m2
07:54 55.4 °F 49.3 °F 29.96 in Calm     80% 0.00 in 157 W/m2
07:59 55.4 °F 49.3 °F 29.96 in Calm     80% 0.00 in 172 W/m2
08:04 55.5 °F 49.6 °F 29.96 in Calm     80.5% 0.00 in 187 W/m2
08:09 55.6 °F 50 °F 29.96 in Calm     81.1% 0.00 in 202 W/m2
08:14 55.7 °F 50.3 °F 29.96 in Calm     82% 0.00 in 216 W/m2
08:19 55.9 °F 50.8 °F 29.96 in Calm     82.8% 0.00 in 230 W/m2
08:24 56.2 °F 51.3 °F 29.96 in Calm     83.8% 0.00 in 245 W/m2
08:29 56.5 °F 51.7 °F 29.96 in Calm     84% 0.00 in 260 W/m2
08:34 56.8 °F 52 °F 29.96 in Calm     84% 0.00 in 274 W/m2
08:39 57.1 °F 52.3 °F 29.96 in Calm     84% 0.00 in 289 W/m2
08:44 57.5 °F 52.4 °F 29.96 in Calm     82.9% 0.00 in 304 W/m2
08:49 57.9 °F 52.2 °F 29.96 in Calm     81.2% 0.00 in 318 W/m2
08:54 58.4 °F 51.9 °F 29.96 in Calm     79.1% 0.00 in 333 W/m2
08:59 58.8 °F 51.7 °F 29.96 in North 0.4 mph 3.5 mph 77.2% 0.00 in 347 W/m2
09:04 59.4 °F 51.2 °F 29.97 in North 0.6 mph 3 mph 74.3% 0.00 in 361 W/m2
09:09 60.1 °F 51 °F 29.97 in NNW 0.5 mph 3 mph 72.1% 0.00 in 373 W/m2
09:14 60.8 °F 51.2 °F 29.97 in NNW 0.4 mph 3.5 mph 70.7% 0.00 in 387 W/m2
09:19 61.4 °F 51.4 °F 29.97 in NW 0.2 mph 2.3 mph 69.5% 0.00 in 401 W/m2
09:24 62.2 °F 51.5 °F 29.97 in Calm   2 mph 68% 0.00 in 415 W/m2
09:29 62.9 °F 51.7 °F 29.97 in Calm     66.7% 0.00 in 429 W/m2
09:34 63.5 °F 52.2 °F 29.97 in Calm     66.7% 0.00 in 442 W/m2
09:39 64 °F 51.9 °F 29.97 in Calm     64.6% 0.00 in 456 W/m2
09:44 64.7 °F 51.8 °F 29.97 in NW 0.3 mph 2.3 mph 63.2% 0.00 in 468 W/m2
09:49 65.3 °F 52.1 °F 29.97 in North 0.2 mph 3.5 mph 62.5% 0.00 in 480 W/m2
09:54 65.8 °F 52 °F 29.97 in North 1.6 mph 6 mph 60.9% 0.00 in 494 W/m2
09:59 66.5 °F 50.8 °F 29.97 in NW 1.2 mph 6 mph 56.9% 0.00 in 503 W/m2
10:04 67.2 °F 51 °F 29.96 in NNW 1.7 mph 6 mph 56% 0.00 in 519 W/m2
10:09 67.9 °F 49.6 °F 29.96 in NNW 3.3 mph 7 mph 52.1% 0.00 in 530 W/m2
10:14 68.8 °F 47.9 °F 29.96 in NNW 3.5 mph 8.1 mph 47.4% 0.00 in 544 W/m2
10:19 69.7 °F 47.7 °F 29.96 in NNW 3.6 mph 10.4 mph 45.6% 0.00 in 552 W/m2
10:24 70.4 °F 47.2 °F 29.96 in NNW 2.8 mph 10 mph 43.6% 0.00 in 563 W/m2
10:29 71.1 °F 48 °F 29.96 in WNW 1.9 mph 8.1 mph 43.8% 0.00 in 575 W/m2
10:34 71.6 °F 48.4 °F 29.96 in NW 3 mph 7 mph 44% 0.00 in 584 W/m2
10:39 72 °F 48 °F 29.96 in NNW 3.5 mph 7 mph 42.6% 0.00 in 596 W/m2
10:44 72.5 °F 47.8 °F 29.96 in NNW 1.8 mph 7 mph 41.5% 0.00 in 607 W/m2
10:49 72.9 °F 48.8 °F 29.95 in NW 2 mph 7 mph 42.5% 0.00 in 616 W/m2
10:54 73.3 °F 47.8 °F 29.95 in NW 2.9 mph 8.1 mph 40.4% 0.00 in 625 W/m2
10:59 73.8 °F 47.7 °F 29.95 in NNW 2.6 mph 8 mph 39.6% 0.00 in 633 W/m2
11:04 74.2 °F 47.6 °F 29.95 in NNW 2.7 mph 8.1 mph 39% 0.00 in 640 W/m2
11:09 74.7 °F 47.7 °F 29.95 in NW 1.9 mph 8 mph 38.5% 0.00 in 651 W/m2
11:14 75 °F 47.5 °F 29.95 in NNW 2.3 mph 6 mph 37.7% 0.00 in 660 W/m2
11:19 75.4 °F 47.5 °F 29.95 in North 4.1 mph 8.1 mph 37.3% 0.00 in 667 W/m2
11:24 75.9 °F 47.4 °F 29.95 in NNW 2.6 mph 8 mph 36.5% 0.00 in 672 W/m2
11:29 76.2 °F 47.8 °F 29.95 in NW 3.2 mph 7 mph 36.8% 0.00 in 681 W/m2
11:34 76.5 °F 47.4 °F 29.94 in NW 3.9 mph 12 mph 35.8% 0.00 in 688 W/m2
11:39 76.8 °F 47 °F 29.94 in NNW 3.4 mph 12 mph 34.9% 0.00 in 695 W/m2
11:44 77.1 °F 47 °F 29.94 in NNW 3.4 mph 10 mph 34.7% 0.00 in 700 W/m2
11:49 77.4 °F 47.5 °F 29.94 in NNW 3 mph 8 mph 34.9% 0.00 in 704 W/m2
11:54 77.7 °F 47.2 °F 29.94 in NNW 3 mph 8.1 mph 34.1% 0.00 in 709 W/m2
11:59 77.9 °F 47.1 °F 29.94 in NNE 2.8 mph 7 mph 33.8% 0.00 in 714 W/m2
12:04 78.1 °F 46.9 °F 29.94 in NNE 2.7 mph 8 mph 33.3% 0.00 in 718 W/m2
12:09 78.4 °F 47.2 °F 29.94 in NNW 2.5 mph 8.1 mph 33.5% 0.00 in 721 W/m2
12:14 78.5 °F 47.5 °F 29.94 in North 3.3 mph 10.4 mph 33.6% 0.00 in 725 W/m2
12:19 78.7 °F 47.1 °F 29.94 in North 3.3 mph 10.4 mph 32.8% 0.00 in 727 W/m2
12:24 79 °F 47.6 °F 29.94 in North 2.4 mph 8.1 mph 33.2% 0.00 in 730 W/m2
12:29 79.3 °F 47.3 °F 29.93 in North 1.7 mph 8 mph 32.5% 0.00 in 732 W/m2
12:34 79.5 °F 47.6 °F 29.93 in North 2.1 mph 7 mph 32.7% 0.00 in 735 W/m2
12:39 79.7 °F 47.3 °F 29.92 in NNE 2.6 mph 8.1 mph 32.1% 0.00 in 735 W/m2
12:44 79.9 °F 48.5 °F 29.92 in NW 1.9 mph 8 mph 33.4% 0.00 in 737 W/m2
12:49 80 °F 47.5 °F 29.92 in NNW 2.5 mph 7 mph 32% 0.00 in 739 W/m2
12:54 80.2 °F 48.4 °F 29.92 in NW 1.1 mph 7 mph 32.9% 0.00 in 739 W/m2
12:59 80.3 °F 47.3 °F 29.92 in NNE 2.2 mph 6 mph 31.4% 0.00 in 741 W/m2
13:04 80.5 °F 47.7 °F 29.92 in NNW 2.4 mph 6 mph 31.7% 0.00 in 741 W/m2
13:09 80.7 °F 46.9 °F 29.92 in NNW 2.9 mph 7 mph 30.6% 0.00 in 739 W/m2
13:14 80.9 °F 47.6 °F 29.91 in NW 2.8 mph 7 mph 31.2% 0.00 in 739 W/m2
13:19 81.1 °F 46.6 °F 29.91 in NNW 1.6 mph 7 mph 30% 0.00 in 737 W/m2
13:24 81.1 °F 46.9 °F 29.91 in North 1.4 mph 5 mph 30.2% 0.00 in 734 W/m2
13:29 81.3 °F 46 °F 29.91 in NNW 2.5 mph 7 mph 29% 0.00 in 735 W/m2
Saratoga, California, USA
Compliments of Weather Underground - 2 mb

WU-history PHP script courtesy of Juneau County Weather and modified for WU/TWC API use by Saratoga-weather.org

This script set is available on GitHub.

deformed-offering